createdAt,value
2019-03-18T00:01:48.073Z,19.37
2019-03-18T00:04:14.378Z,19.37
2019-03-18T00:06:40.683Z,19.28
2019-03-18T00:09:07.023Z,19.26
2019-03-18T00:11:33.327Z,19.21
2019-03-18T00:13:59.817Z,19.16
2019-03-18T00:16:26.123Z,19.13
2019-03-18T00:18:52.539Z,19.12
2019-03-18T00:21:18.856Z,19.08
2019-03-18T00:23:45.205Z,19.08
2019-03-18T00:26:11.508Z,19.06
2019-03-18T00:28:37.817Z,19.05
2019-03-18T00:31:04.139Z,19.10
2019-03-18T00:33:30.444Z,19.15
2019-03-18T00:35:58.154Z,19.19
2019-03-18T00:38:23.133Z,19.20
2019-03-18T00:40:49.431Z,19.20
2019-03-18T00:43:15.749Z,19.20
2019-03-18T00:45:42.061Z,19.20
2019-03-18T00:48:08.374Z,19.19
2019-03-18T00:50:34.701Z,19.18
2019-03-18T00:53:01.016Z,19.18
2019-03-18T00:55:27.325Z,19.16
2019-03-18T00:57:53.623Z,19.15
2019-03-18T01:00:19.938Z,19.13
2019-03-18T01:02:49.127Z,19.12
2019-03-18T01:05:12.566Z,19.11
2019-03-18T01:07:38.872Z,19.10
2019-03-18T01:10:05.175Z,19.08
2019-03-18T01:12:31.624Z,19.07
2019-03-18T01:14:57.881Z,19.06
2019-03-18T01:17:24.188Z,19.05
2019-03-18T01:19:50.494Z,19.01
2019-03-18T01:22:16.830Z,19.03
2019-03-18T01:24:43.146Z,19.02
2019-03-18T01:27:09.451Z,19.01
2019-03-18T01:29:35.757Z,19.00
2019-03-18T01:32:02.077Z,18.99
2019-03-18T01:34:28.387Z,18.95
2019-03-18T01:36:54.692Z,18.96
2019-03-18T01:39:21.039Z,18.96
2019-03-18T01:41:47.342Z,18.92
2019-03-18T01:44:13.660Z,18.91
2019-03-18T01:46:39.949Z,18.89
2019-03-18T01:49:06.256Z,18.89
2019-03-18T01:51:32.562Z,18.88
2019-03-18T01:53:58.873Z,18.86
2019-03-18T01:56:25.192Z,18.84
2019-03-18T01:58:51.483Z,18.84
2019-03-18T02:01:17.832Z,18.83
2019-03-18T02:03:44.125Z,18.81
2019-03-18T02:06:10.437Z,18.80
2019-03-18T02:08:36.744Z,18.77
2019-03-18T02:11:03.053Z,18.74
2019-03-18T02:13:29.359Z,18.73
2019-03-18T02:15:55.670Z,18.71
2019-03-18T02:18:21.980Z,18.69
2019-03-18T02:20:48.283Z,18.68
2019-03-18T02:23:14.612Z,18.66
2019-03-18T02:25:40.924Z,18.66
2019-03-18T02:28:07.220Z,18.64
2019-03-18T02:30:33.529Z,18.60
2019-03-18T02:32:59.833Z,18.59
2019-03-18T02:35:26.156Z,18.56
2019-03-18T02:37:52.615Z,18.52
2019-03-18T02:40:18.776Z,18.51
2019-03-18T02:42:45.086Z,18.50
2019-03-18T02:45:11.395Z,18.49
2019-03-18T02:47:37.708Z,18.48
2019-03-18T02:50:04.008Z,18.46
2019-03-18T02:52:30.321Z,18.45
2019-03-18T02:54:56.631Z,18.43
2019-03-18T02:57:22.937Z,18.42
2019-03-18T02:59:49.264Z,18.41
2019-03-18T03:02:15.549Z,18.40
2019-03-18T03:04:41.863Z,18.36
2019-03-18T03:07:08.174Z,18.36
2019-03-18T03:09:34.507Z,18.33
2019-03-18T03:12:00.807Z,18.33
2019-03-18T03:14:27.116Z,18.30
2019-03-18T03:16:53.429Z,18.25
2019-03-18T03:19:19.731Z,18.25
2019-03-18T03:21:46.045Z,18.24
2019-03-18T03:24:12.344Z,18.22
2019-03-18T03:26:38.657Z,18.19
2019-03-18T03:29:04.961Z,18.14
2019-03-18T03:31:31.267Z,18.13
2019-03-18T03:33:57.574Z,18.11
2019-03-18T03:36:23.881Z,18.08
2019-03-18T03:38:50.191Z,18.08
2019-03-18T03:41:18.311Z,18.06
2019-03-18T03:43:42.803Z,18.04
2019-03-18T03:46:09.105Z,18.03
2019-03-18T03:48:35.460Z,17.99
2019-03-18T03:51:01.744Z,17.96
2019-03-18T03:53:30.864Z,17.96
2019-03-18T03:55:54.372Z,17.94
2019-03-18T03:58:20.680Z,17.91
2019-03-18T04:00:46.992Z,17.89
2019-03-18T04:03:13.301Z,17.85
2019-03-18T04:05:39.609Z,17.83
2019-03-18T04:08:05.912Z,17.83
2019-03-18T04:10:32.239Z,17.81
2019-03-18T04:12:58.551Z,17.80
2019-03-18T04:15:24.847Z,17.78
2019-03-18T04:17:51.157Z,17.78
2019-03-18T04:20:17.493Z,17.75
2019-03-18T04:22:43.791Z,17.74
2019-03-18T04:25:10.088Z,17.73
2019-03-18T04:27:36.399Z,17.72
2019-03-18T04:30:02.717Z,17.71
2019-03-18T04:32:29.054Z,17.69
2019-03-18T04:34:55.351Z,17.67
2019-03-18T04:37:21.655Z,17.64
2019-03-18T04:39:47.964Z,17.62
2019-03-18T04:42:14.271Z,17.62
2019-03-18T04:44:40.582Z,17.63
2019-03-18T04:47:14.344Z,17.65
2019-03-18T04:49:33.204Z,17.65
2019-03-18T04:51:59.515Z,17.67
2019-03-18T04:54:25.829Z,17.70
2019-03-18T04:56:52.201Z,17.73
2019-03-18T04:59:19.235Z,17.75
2019-03-18T05:01:45.541Z,17.79
2019-03-18T05:04:11.839Z,17.85
2019-03-18T05:06:38.179Z,17.91
2019-03-18T05:09:04.484Z,17.94
2019-03-18T05:11:30.954Z,18.01
2019-03-18T05:13:57.375Z,18.06
2019-03-18T05:16:23.573Z,18.10
2019-03-18T05:18:49.880Z,18.16
2019-03-18T05:21:16.189Z,18.23
2019-03-18T05:23:42.508Z,18.30
2019-03-18T05:26:08.811Z,18.38
2019-03-18T05:28:35.142Z,18.46
2019-03-18T05:31:01.446Z,18.58
2019-03-18T05:33:27.762Z,18.67
2019-03-18T05:35:54.078Z,18.80
2019-03-18T05:38:20.392Z,18.93
2019-03-18T05:40:46.706Z,19.06
2019-03-18T05:43:13.005Z,19.19
2019-03-18T05:45:39.381Z,19.32
2019-03-18T05:48:05.762Z,19.45
2019-03-18T05:50:32.011Z,18.85
2019-03-18T05:52:58.367Z,18.09
2019-03-18T05:55:24.681Z,17.72
2019-03-18T05:57:50.996Z,17.51
2019-03-18T06:00:17.307Z,17.34
2019-03-18T06:02:46.680Z,17.11
2019-03-18T06:05:09.912Z,17.18
2019-03-18T06:07:36.227Z,17.20
2019-03-18T06:10:02.530Z,17.22
2019-03-18T06:12:28.840Z,17.21
2019-03-18T06:14:55.147Z,17.17
2019-03-18T06:17:21.469Z,17.25
2019-03-18T06:19:47.776Z,17.38
2019-03-18T06:22:14.085Z,17.40
2019-03-18T06:24:40.436Z,17.44
2019-03-18T06:27:06.730Z,17.49
2019-03-18T06:29:33.102Z,17.58
2019-03-18T06:31:59.380Z,17.61
2019-03-18T06:34:25.717Z,17.68
2019-03-18T06:36:52.040Z,17.81
2019-03-18T06:39:18.412Z,17.97
2019-03-18T06:41:44.758Z,18.03
2019-03-18T06:44:11.079Z,18.24
2019-03-18T06:46:37.386Z,18.46
2019-03-18T06:49:03.728Z,18.41
2019-03-18T06:51:30.040Z,18.64
2019-03-18T06:53:56.371Z,18.78
2019-03-18T06:56:22.714Z,18.80
2019-03-18T06:58:49.802Z,18.98
2019-03-18T07:01:16.114Z,19.19
2019-03-18T07:03:42.420Z,19.22
2019-03-18T07:06:08.732Z,19.41
2019-03-18T07:08:35.028Z,19.48
2019-03-18T07:11:01.336Z,19.64
2019-03-18T07:13:27.648Z,19.77
2019-03-18T07:15:53.983Z,19.91
2019-03-18T07:18:20.293Z,19.99
2019-03-18T07:20:46.612Z,20.11
2019-03-18T07:23:13.014Z,20.34
2019-03-18T07:25:39.329Z,20.52
2019-03-18T07:28:05.641Z,20.61
2019-03-18T07:30:31.949Z,20.71
2019-03-18T07:32:58.264Z,20.62
2019-03-18T07:35:24.571Z,20.67
2019-03-18T07:37:50.884Z,20.93
2019-03-18T07:40:17.203Z,21.00
2019-03-18T07:42:43.503Z,21.10
2019-03-18T07:45:09.824Z,21.40
2019-03-18T07:47:36.128Z,21.67
2019-03-18T07:50:02.435Z,21.79
2019-03-18T07:52:28.746Z,21.72
2019-03-18T07:54:55.046Z,21.95
2019-03-18T07:57:21.366Z,22.23
2019-03-18T07:59:47.664Z,22.32
2019-03-18T08:02:13.976Z,22.53
2019-03-18T08:04:40.281Z,22.48
2019-03-18T08:07:06.617Z,22.63
2019-03-18T08:09:32.922Z,22.86
2019-03-18T08:11:59.229Z,23.09
2019-03-18T08:14:25.540Z,23.14
2019-03-18T08:16:51.855Z,23.29
2019-03-18T08:19:18.164Z,23.45
2019-03-18T08:21:44.482Z,23.53
2019-03-18T08:24:10.779Z,23.64
2019-03-18T08:26:37.145Z,23.77
2019-03-18T08:29:03.457Z,23.82
2019-03-18T08:31:29.769Z,23.90
2019-03-18T08:33:56.080Z,24.09
2019-03-18T08:36:22.399Z,24.20
2019-03-18T08:38:48.707Z,24.25
2019-03-18T08:41:15.023Z,24.37
2019-03-18T08:43:41.325Z,24.54
2019-03-18T08:46:07.638Z,24.68
2019-03-18T08:48:33.958Z,24.80
2019-03-18T08:51:00.263Z,24.89
2019-03-18T08:53:26.572Z,24.90
2019-03-18T08:55:52.880Z,25.08
2019-03-18T08:58:19.311Z,25.27
2019-03-18T09:00:45.622Z,25.35
2019-03-18T09:03:11.946Z,25.47
2019-03-18T09:05:38.249Z,25.48
2019-03-18T09:08:04.576Z,25.55
2019-03-18T09:10:30.884Z,25.68
2019-03-18T09:12:57.189Z,25.68
2019-03-18T09:15:23.519Z,25.83
2019-03-18T09:17:49.830Z,25.90
2019-03-18T09:20:16.136Z,25.94
2019-03-18T09:22:42.450Z,25.95
2019-03-18T09:25:08.762Z,26.04
2019-03-18T09:27:35.102Z,26.20
2019-03-18T09:30:01.441Z,26.14
2019-03-18T09:32:27.750Z,26.33
2019-03-18T09:34:54.874Z,26.52
2019-03-18T09:37:20.460Z,26.60
2019-03-18T09:39:46.768Z,26.74
2019-03-18T09:42:13.088Z,26.90
2019-03-18T09:44:39.392Z,27.01
2019-03-18T09:47:05.718Z,27.11
2019-03-18T09:49:32.027Z,27.14
2019-03-18T09:51:58.355Z,27.21
2019-03-18T09:54:24.661Z,27.27
2019-03-18T09:56:51.021Z,27.28
2019-03-18T09:59:17.337Z,27.31
2019-03-18T10:01:44.576Z,27.40
2019-03-18T10:04:09.983Z,27.48
2019-03-18T10:06:36.294Z,27.59
2019-03-18T10:09:02.606Z,27.56
2019-03-18T10:11:28.931Z,27.53
2019-03-18T10:13:55.324Z,27.65
2019-03-18T10:16:21.629Z,27.77
2019-03-18T10:18:47.948Z,27.69
2019-03-18T10:21:14.303Z,27.68
2019-03-18T10:23:40.651Z,27.56
2019-03-18T10:26:06.961Z,27.51
2019-03-18T10:28:33.278Z,27.56
2019-03-18T10:30:59.590Z,27.54
2019-03-18T10:33:25.903Z,27.60
2019-03-18T10:35:54.199Z,27.55
2019-03-18T10:38:18.575Z,27.66
2019-03-18T10:40:44.908Z,27.90
2019-03-18T10:43:11.213Z,28.12
2019-03-18T10:45:37.520Z,28.31
2019-03-18T10:48:03.845Z,28.33
2019-03-18T10:50:30.150Z,28.32
2019-03-18T10:52:56.500Z,28.20
2019-03-18T10:55:22.803Z,28.06
2019-03-18T10:57:49.115Z,28.13
2019-03-18T11:00:15.490Z,28.36
2019-03-18T11:02:44.680Z,28.60
2019-03-18T11:05:08.417Z,28.76
2019-03-18T11:07:34.417Z,28.88
2019-03-18T11:10:00.732Z,28.93
2019-03-18T11:12:27.037Z,28.97
2019-03-18T11:14:53.343Z,29.01
2019-03-18T11:17:19.658Z,29.00
2019-03-18T11:19:57.579Z,28.86
2019-03-18T11:22:12.303Z,28.84
2019-03-18T11:24:38.613Z,28.87
2019-03-18T11:27:04.930Z,28.88
2019-03-18T11:29:31.241Z,28.95
2019-03-18T11:31:57.585Z,29.10
2019-03-18T11:34:23.886Z,29.08
2019-03-18T11:36:50.227Z,29.17
2019-03-18T11:39:16.531Z,29.22
2019-03-18T11:41:42.858Z,29.29
2019-03-18T11:44:09.166Z,29.34
2019-03-18T11:46:35.496Z,29.31
2019-03-18T11:49:01.826Z,29.30
2019-03-18T11:51:28.146Z,29.30
2019-03-18T11:53:54.449Z,29.34
2019-03-18T11:56:20.792Z,29.34
2019-03-18T11:58:47.093Z,29.34
2019-03-18T12:01:13.401Z,29.35
2019-03-18T12:03:39.712Z,29.36
2019-03-18T12:06:06.043Z,29.34
2019-03-18T12:08:32.351Z,29.35
2019-03-18T12:10:58.733Z,29.38
2019-03-18T12:13:24.977Z,29.39
2019-03-18T12:15:51.285Z,29.32
2019-03-18T12:18:17.608Z,29.20
2019-03-18T12:20:43.920Z,29.13
2019-03-18T12:23:10.225Z,29.04
2019-03-18T12:25:36.580Z,28.98
2019-03-18T12:28:05.238Z,28.96
2019-03-18T12:30:29.216Z,28.84
2019-03-18T12:32:55.522Z,28.85
2019-03-18T12:35:21.833Z,28.88
2019-03-18T12:37:48.142Z,28.85
2019-03-18T12:40:14.470Z,28.85
2019-03-18T12:42:40.784Z,28.79
2019-03-18T12:45:08.809Z,28.66
2019-03-18T12:47:33.429Z,28.56
2019-03-18T12:49:59.734Z,28.56
2019-03-18T12:52:26.076Z,28.56
2019-03-18T12:54:52.375Z,28.62
2019-03-18T12:57:18.687Z,28.64
2019-03-18T12:59:45.030Z,28.54
2019-03-18T13:02:11.377Z,28.50
2019-03-18T13:04:37.683Z,28.38
2019-03-18T13:07:03.994Z,28.32
2019-03-18T13:09:30.311Z,28.33
2019-03-18T13:11:56.632Z,28.34
2019-03-18T13:14:22.964Z,28.37
2019-03-18T13:16:49.307Z,28.31
2019-03-18T13:19:15.620Z,28.17
2019-03-18T13:21:41.935Z,27.94
2019-03-18T13:24:08.238Z,27.91
2019-03-18T13:26:34.578Z,27.83
2019-03-18T13:29:00.958Z,27.84
2019-03-18T13:31:27.192Z,27.81
2019-03-18T13:33:53.497Z,27.75
2019-03-18T13:36:19.804Z,27.72
2019-03-18T13:38:46.176Z,27.63
2019-03-18T13:41:12.477Z,27.56
2019-03-18T13:43:38.869Z,27.42
2019-03-18T13:46:05.191Z,27.26
2019-03-18T13:48:31.492Z,27.25
2019-03-18T13:50:57.800Z,27.23
2019-03-18T13:53:24.112Z,27.24
2019-03-18T13:55:50.440Z,27.26
2019-03-18T13:58:16.747Z,27.20
2019-03-18T14:00:43.072Z,27.16
2019-03-18T14:03:09.371Z,27.04
2019-03-18T14:05:35.706Z,26.93
2019-03-18T14:08:02.027Z,26.82
2019-03-18T14:10:28.331Z,26.73
2019-03-18T14:12:54.648Z,26.63
2019-03-18T14:15:20.970Z,26.54
2019-03-18T14:17:47.295Z,26.42
2019-03-18T14:20:13.599Z,26.32
2019-03-18T14:22:39.905Z,26.25
2019-03-18T14:25:06.223Z,26.20
2019-03-18T14:27:32.532Z,26.13
2019-03-18T14:29:58.862Z,26.03
2019-03-18T14:32:25.171Z,26.03
2019-03-18T14:34:51.481Z,26.00
2019-03-18T14:37:17.789Z,25.97
2019-03-18T14:39:44.095Z,25.90
2019-03-18T14:42:10.408Z,25.85
2019-03-18T14:44:36.710Z,25.81
2019-03-18T14:47:03.041Z,25.78
2019-03-18T14:49:29.346Z,25.74
2019-03-18T14:51:55.659Z,25.72
2019-03-18T14:54:21.969Z,25.68
2019-03-18T14:56:48.277Z,25.62
2019-03-18T14:59:14.599Z,25.57
2019-03-18T15:01:40.905Z,25.54
2019-03-18T15:04:07.265Z,25.49
2019-03-18T15:06:33.573Z,25.48
2019-03-18T15:08:59.880Z,25.38
2019-03-18T15:11:26.195Z,25.38
2019-03-18T15:13:52.511Z,25.44
2019-03-18T15:16:18.873Z,25.38
2019-03-18T15:18:45.197Z,25.18
2019-03-18T15:21:11.505Z,25.05
2019-03-18T15:23:37.822Z,24.96
2019-03-18T15:26:05.272Z,24.96
2019-03-18T15:28:30.433Z,24.92
2019-03-18T15:30:56.747Z,24.84
2019-03-18T15:33:23.089Z,24.76
2019-03-18T15:35:49.405Z,24.76
2019-03-18T15:38:15.730Z,24.76
2019-03-18T15:40:42.021Z,24.76
2019-03-18T15:43:08.333Z,24.72
2019-03-18T15:45:34.679Z,24.72
2019-03-18T15:48:00.988Z,24.70
2019-03-18T15:50:27.334Z,24.65
2019-03-18T15:52:53.645Z,24.67
2019-03-18T15:55:19.972Z,24.64
2019-03-18T15:57:46.299Z,24.54
2019-03-18T16:00:12.604Z,24.49
2019-03-18T16:02:38.954Z,24.50
2019-03-18T16:05:05.264Z,24.46
2019-03-18T16:07:31.572Z,24.37
2019-03-18T16:09:57.895Z,24.30
2019-03-18T16:12:24.288Z,24.25
2019-03-18T16:14:50.603Z,24.22
2019-03-18T16:17:16.918Z,24.13
2019-03-18T16:19:43.227Z,24.10
2019-03-18T16:22:09.587Z,24.05
2019-03-18T16:24:36.006Z,23.99
2019-03-18T16:27:02.343Z,23.88
2019-03-18T16:29:28.636Z,23.86
2019-03-18T16:31:54.952Z,23.82
2019-03-18T16:34:21.312Z,23.76
2019-03-18T16:36:47.577Z,23.67
2019-03-18T16:39:13.899Z,23.57
2019-03-18T16:41:40.234Z,23.55
2019-03-18T16:44:06.555Z,23.53
2019-03-18T16:46:32.942Z,23.50
2019-03-18T16:48:59.220Z,23.44
2019-03-18T16:51:25.528Z,23.35
2019-03-18T16:53:51.848Z,23.35
2019-03-18T16:56:18.164Z,23.35
2019-03-18T16:58:44.513Z,23.25
2019-03-18T17:01:10.821Z,23.25
2019-03-18T17:03:37.121Z,23.28
2019-03-18T17:06:03.483Z,23.21
2019-03-18T17:08:29.751Z,23.16
2019-03-18T17:10:56.063Z,23.09
2019-03-18T17:13:22.385Z,23.01
2019-03-18T17:15:48.719Z,22.89
2019-03-18T17:18:17.778Z,22.79
2019-03-18T17:20:41.345Z,22.66
2019-03-18T17:23:07.662Z,22.49
2019-03-18T17:25:33.963Z,22.44
2019-03-18T17:28:00.279Z,22.48
2019-03-18T17:30:26.948Z,22.56
2019-03-18T17:32:52.918Z,22.44
2019-03-18T17:35:19.230Z,22.19
2019-03-18T17:37:45.540Z,22.13
2019-03-18T17:40:11.845Z,22.03
2019-03-18T17:42:38.160Z,21.92
2019-03-18T17:45:04.515Z,21.82
2019-03-18T17:47:30.777Z,21.71
2019-03-18T17:49:57.374Z,21.63
2019-03-18T17:52:23.688Z,21.64
2019-03-18T17:54:49.993Z,21.68
2019-03-18T17:57:16.305Z,21.66
2019-03-18T17:59:42.612Z,21.67
2019-03-18T18:02:08.948Z,21.66
2019-03-18T18:04:35.264Z,21.63
2019-03-18T18:07:01.572Z,21.62
2019-03-18T18:09:27.882Z,21.52
2019-03-18T18:11:54.202Z,21.48
2019-03-18T18:14:20.530Z,21.40
2019-03-18T18:16:46.844Z,21.32
2019-03-18T18:19:13.235Z,21.24
2019-03-18T18:21:39.541Z,21.29
2019-03-18T18:24:05.852Z,21.27
2019-03-18T18:26:32.157Z,21.30
2019-03-18T18:28:58.510Z,21.29
2019-03-18T18:31:24.829Z,21.27
2019-03-18T18:33:51.141Z,21.24
2019-03-18T18:36:17.491Z,21.23
2019-03-18T18:38:43.803Z,21.16
2019-03-18T18:41:10.147Z,21.10
2019-03-18T18:43:36.456Z,21.11
2019-03-18T18:46:02.786Z,21.09
2019-03-18T18:48:29.093Z,21.04
2019-03-18T18:50:55.402Z,20.93
2019-03-18T18:53:26.518Z,20.97
2019-03-18T18:55:48.036Z,20.89
2019-03-18T18:58:14.345Z,20.88
2019-03-18T19:00:40.683Z,20.93
2019-03-18T19:03:06.997Z,20.91
2019-03-18T19:05:33.306Z,20.83
2019-03-18T19:07:59.638Z,20.79
2019-03-18T19:10:25.947Z,20.77
2019-03-18T19:12:52.259Z,20.79
2019-03-18T19:15:18.591Z,20.77
2019-03-18T19:17:44.897Z,20.71
2019-03-18T19:20:11.241Z,20.63
2019-03-18T19:22:37.552Z,20.61
2019-03-18T19:25:03.864Z,20.58
2019-03-18T19:27:30.201Z,20.57
2019-03-18T19:29:56.518Z,20.48
2019-03-18T19:32:22.870Z,20.38
2019-03-18T19:34:49.195Z,20.33
2019-03-18T19:37:15.504Z,20.35
2019-03-18T19:39:41.924Z,20.34
2019-03-18T19:42:08.246Z,20.30
2019-03-18T19:44:34.568Z,20.36
2019-03-18T19:47:00.886Z,20.40
2019-03-18T19:49:27.307Z,20.61
2019-03-18T19:51:53.617Z,20.73
2019-03-18T19:54:19.931Z,20.78
2019-03-18T19:56:46.428Z,20.82
2019-03-18T19:59:12.690Z,20.84
2019-03-18T20:01:39.003Z,20.87
2019-03-18T20:04:05.302Z,20.88
2019-03-18T20:06:31.669Z,20.91
2019-03-18T20:08:58.054Z,20.92
2019-03-18T20:11:24.342Z,20.92
2019-03-18T20:13:50.651Z,20.89
2019-03-18T20:16:16.952Z,20.90
2019-03-18T20:18:43.304Z,20.88
2019-03-18T20:21:09.615Z,20.89
2019-03-18T20:23:35.920Z,20.90
2019-03-18T20:26:02.238Z,20.89
2019-03-18T20:28:28.540Z,20.89
2019-03-18T20:30:54.893Z,20.89
2019-03-18T20:33:21.201Z,20.88
2019-03-18T20:35:47.624Z,20.86
2019-03-18T20:38:13.937Z,20.86
2019-03-18T20:40:40.245Z,20.85
2019-03-18T20:43:06.563Z,20.84
2019-03-18T20:45:32.872Z,20.83
2019-03-18T20:47:59.258Z,20.82
2019-03-18T20:50:25.548Z,20.82
2019-03-18T20:52:51.859Z,20.80
2019-03-18T20:55:18.173Z,20.78
2019-03-18T20:57:44.520Z,20.77
2019-03-18T21:00:10.802Z,20.77
2019-03-18T21:02:37.111Z,20.75
2019-03-18T21:05:03.438Z,20.73
2019-03-18T21:07:29.749Z,20.73
2019-03-18T21:09:56.062Z,20.71
2019-03-18T21:12:22.371Z,20.69
2019-03-18T21:14:52.311Z,20.67
2019-03-18T21:17:18.614Z,20.66
2019-03-18T21:19:44.955Z,20.58
2019-03-18T21:22:11.297Z,20.62
2019-03-18T21:24:37.609Z,20.61
2019-03-18T21:27:03.924Z,20.60
2019-03-18T21:29:30.264Z,20.58
2019-03-18T21:31:56.570Z,20.58
2019-03-18T21:34:22.915Z,20.56
2019-03-18T21:36:49.189Z,20.54
2019-03-18T21:39:17.877Z,20.53
2019-03-18T21:41:41.833Z,20.48
2019-03-18T21:44:08.179Z,20.51
2019-03-18T21:46:34.454Z,20.50
2019-03-18T21:49:00.796Z,20.49
2019-03-18T21:51:27.129Z,20.48
2019-03-18T21:53:53.439Z,20.47
2019-03-18T21:56:19.742Z,20.45
2019-03-18T21:58:46.139Z,20.45
2019-03-18T22:01:12.458Z,20.44
2019-03-18T22:03:38.829Z,20.43
2019-03-18T22:06:05.166Z,20.41
2019-03-18T22:08:31.494Z,20.38
2019-03-18T22:10:57.796Z,20.36
2019-03-18T22:13:24.154Z,20.35
2019-03-18T22:15:50.461Z,20.33
2019-03-18T22:18:16.819Z,20.32
2019-03-18T22:20:43.130Z,20.30
2019-03-18T22:23:09.479Z,20.28
2019-03-18T22:25:35.801Z,20.27
2019-03-18T22:28:02.107Z,20.19
2019-03-18T22:30:28.443Z,20.23
2019-03-18T22:32:54.765Z,20.21
2019-03-18T22:35:21.076Z,20.18
2019-03-18T22:37:47.406Z,20.08
2019-03-18T22:40:13.749Z,20.14
2019-03-18T22:42:40.068Z,20.13
2019-03-18T22:45:06.405Z,20.11
2019-03-18T22:47:32.679Z,20.09
2019-03-18T22:49:58.993Z,20.06
2019-03-18T22:52:25.319Z,20.05
2019-03-18T22:54:55.863Z,20.02
2019-03-18T22:57:18.534Z,20.02
2019-03-18T22:59:44.850Z,19.99
2019-03-18T23:02:11.155Z,19.97
2019-03-18T23:04:37.508Z,19.95
2019-03-18T23:07:03.829Z,19.92
2019-03-18T23:09:30.131Z,19.91
2019-03-18T23:11:56.481Z,19.87
2019-03-18T23:14:22.788Z,19.87
2019-03-18T23:16:49.105Z,19.85
2019-03-18T23:19:15.414Z,19.82
2019-03-18T23:21:41.725Z,19.81
2019-03-18T23:24:08.030Z,19.80
2019-03-18T23:26:34.341Z,19.77
2019-03-18T23:29:00.645Z,19.76
2019-03-18T23:31:26.982Z,19.73
2019-03-18T23:33:53.294Z,19.72
2019-03-18T23:36:19.595Z,19.69
2019-03-18T23:38:45.917Z,19.67
2019-03-18T23:41:12.242Z,19.67
2019-03-18T23:43:38.551Z,19.62
2019-03-18T23:46:04.984Z,19.64
2019-03-18T23:48:31.302Z,19.63
2019-03-18T23:50:57.619Z,19.61
2019-03-18T23:53:23.935Z,19.60
2019-03-18T23:55:50.250Z,19.60
2019-03-18T23:58:16.563Z,19.58
